METAR stanice u blizini

 

LYBE - Beograd / Surčin, Srbija
Ažurirano: 23/02/2018 17:30
Partly Cloudy
Partly Cloudy
 Pravac vetra I
Vetar: I 15 km/h
Temperatura: 4°C
Osećaj hladnoće: 1°C
Tačka rose: -1°C
Vlažnost: 70%
Pritisak: 1014 hPa
Oblaci: Partly Cloudy
Vidljivost: 10 km
Cloud details: Partly Cloudy 914 m
2018/02/23 16:30 LYBE 231630Z 08008KT 9999 SCT030 04/M01 Q1014 NOSIG
LYBT - Beograd / Batajnica, Srbija
Ažurirano: 23/02/2018 17:30
Mostly Cloudy
Mostly Cloudy
 Pravac vetra ISI
Vetar: ISI 19 km/h
Temperatura: 4°C
Osećaj hladnoće: 0°C
Tačka rose: -1°C
Vlažnost: 70%
Pritisak: 1015 hPa
Oblaci: Mostly Cloudy
Vidljivost: 10 km
Cloud details: Mostly Cloudy 1006 m
2018/02/23 16:30 LYBT 231630Z 07010KT 040V100 9999 BKN033 04/M01 Q1015 NOSIG
LYVR - Vršac, Srbija
Ažurirano: 23/02/2018 17:30
Mostly Cloudy
Mostly Cloudy
 Pravac vetra IJI
Vetar: IJI 13 km/h
Temperatura: 5°C
Osećaj hladnoće: 2°C
Tačka rose: -1°C
Vlažnost: 66%
Pritisak: 1015 hPa
Oblaci: Mostly Cloudy
Vidljivost: 10 km
Cloud details: Mostly Cloudy 1219 m
2018/02/23 16:30 LYVR 231630Z 11007KT 070V150 9999 BKN040 05/M01 Q1015 NOSIG
 
LYKV - Lađevci, Srbija
Ažurirano: 23/02/2018 17:30
Mostly Cloudy
Mostly Cloudy
 Pravac vetra JJI
Vetar: JJI 19 km/h
Temperatura: 4°C
Osećaj hladnoće: 0°C
Tačka rose: 1°C
Vlažnost: 81%
Pritisak: 1013 hPa
Oblaci: Mostly Cloudy
Vidljivost: 10 km
Cloud details: Mostly Cloudy 914 m
2018/02/23 16:30 LYKV 231630Z 15010KT 9999 BKN030 04/01 Q1013 NOSIG
LYNI - Niš, Srbija
Ažurirano: 23/02/2018 17:30
Mostly Cloudy
Mostly Cloudy
 Pravac vetra SI
Vetar: SI 13 km/h
Temperatura: 4°C
Osećaj hladnoće: 1°C
Tačka rose: -2°C
Vlažnost: 65%
Pritisak: 1012 hPa
Oblaci: Mostly Cloudy
Vidljivost: 10 km
Cloud details: Mostly Cloudy 1524 m
2018/02/23 16:30 LYNI 231630Z 04007KT 020V090 9999 BKN050 04/M02 Q1012 NOSIG
BKPR - Priština, Srbija
Ažurirano: 23/02/2018 17:30
Few Clouds
Few Clouds
 Pravac vetra JI
Vetar: JI 11 km/h
Temperatura: 7°C
Osećaj hladnoće: 5°C
Tačka rose: 3°C
Vlažnost: 76%
Pritisak: 1010 hPa
Oblaci: Few Clouds
Vidljivost: 10 km
Cloud details: Few Clouds 1219 m
2018/02/23 16:30 BKPR 231630Z 13006KT 9999 FEW040 07/03 Q1010 NOSIG RMK 17010095
 
LHPP - Pecs / Pogany, Hungary
Ažurirano: 23/02/2018 17:15
Oblačno
Oblačno
 Pravac vetra SI
Vetar: SI 19 km/h
Temperatura: 1°C
Osećaj hladnoće: -4°C
Tačka rose: -1°C
Vlažnost: 87%
Pritisak: 1016 hPa
Oblaci: Oblačno
Vidljivost: 7 km
Cloud details: Oblačno 305 m
2018/02/23 16:15 LHPP 231615Z 05010KT 7000 OVC010 01/M01 Q1016
LHUD - Szeged, Hungary
Ažurirano: 23/02/2018 17:15
Oblačno
Oblačno
 Pravac vetra S
Vetar: S 17 km/h
Temperatura: 3°C
Osećaj hladnoće: -1°C
Tačka rose: 2°C
Vlažnost: 93%
Pritisak: 1016 hPa
Oblaci: Oblačno
Vidljivost: 6 km
Cloud details: Oblačno 183 m
2018/02/23 16:15 LHUD 231615Z 01009KT 6000 OVC006 03/02 Q1016
LRTR - Timisoara, Romania
Ažurirano: 23/02/2018 17:30
Mostly Cloudy
Mostly Cloudy
 Pravac vetra S
Vetar: S 13 km/h
Temperatura: 6°C
Osećaj hladnoće: 3°C
Tačka rose: 4°C
Vlažnost: 87%
Pritisak: 1014 hPa
Oblaci: Mostly Cloudy
Vidljivost: 10 km
Cloud details: Mostly Cloudy 1158 m
2018/02/23 16:30 LRTR 231630Z 36007KT 9999 BKN038 06/04 Q1014
 
LRCV - Craiova, Romania
Ažurirano: 23/02/2018 17:30
Mist, Pretežno oblačno
Mist, Pretežno oblačno
 Pravac vetra ISI
Vetar: ISI 11 km/h
Temperatura: 0°C
Osećaj hladnoće: -4°C
Tačka rose: -2°C
Vlažnost: 87%
Pritisak: 1017 hPa
Pregled: Mist
Oblaci: Mostly Cloudy
Vidljivost: 4 km
Cloud details: Mostly Cloudy 244 m
2018/02/23 16:30 LRCV 231630Z 07006KT 050V110 4000 BR BKN008 M00/M02 Q1017 R09/29//95
LBSF - Sofia, Bulgaria
Ažurirano: 23/02/2018 17:30
Mostly Cloudy
Mostly Cloudy
 Pravac vetra IJI
Vetar: IJI 24 km/h
Temperatura: 4°C
Osećaj hladnoće: -1°C
Tačka rose: 2°C
Vlažnost: 87%
Pritisak: 1013 hPa
Oblaci: Mostly Cloudy
Vidljivost: 10 km
Cloud details: Partly Cloudy 945 m
Mostly Cloudy 1463 m
2018/02/23 16:30 LBSF 231630Z 12013KT 9999 SCT031 BKN048 04/02 Q1013 NOSIG
LWSK - Skoplje, Makedonija
Ažurirano: 23/02/2018 17:30
Mostly Cloudy
Mostly Cloudy
 Pravac vetra JI
Vetar: JI 9 km/h
Temperatura: 10°C
Osećaj hladnoće: 9°C
Tačka rose: 5°C
Vlažnost: 71%
Pritisak: 1012 hPa
Oblaci: Mostly Cloudy
Vidljivost: 10 km
Cloud details: Few Clouds 610 m
Mostly Cloudy 1524 m
Mostly Cloudy 2286 m
2018/02/23 16:30 LWSK 231630Z 14005KT 9999 FEW020 BKN050 BKN075 10/05 Q1012 NOSIG
 
LYPG - Podgorica, Crna Gora
Ažurirano: 23/02/2018 17:30
Partly Cloudy
Partly Cloudy
 Pravac vetra J
Vetar: J 2 km/h
Temperatura: 11°C
Tačka rose: 6°C
Vlažnost: 72%
Pritisak: 1007 hPa
Oblaci: Partly Cloudy
Vidljivost: 10 km
Cloud details: Partly Cloudy 2743 m
2018/02/23 16:30 LYPG 231630Z 19001KT 9999 SCT090 11/06 Q1007 NOSIG
LQSA - Sarajevo, Bosna i Hercegovina
Ažurirano: 23/02/2018 17:00
Mist, Oblačno
Mist, Oblačno
 Pravac vetra J
Vetar: J 4 km/h
Temperatura: 3°C
Tačka rose: 2°C
Vlažnost: 93%
Pritisak: 1011 hPa
Pregled: Mist
Oblaci: Oblačno
Vidljivost: 5 km
Cloud details: Oblačno 457 m
2018/02/23 16:00 LQSA 231600Z 17002KT 5000 BR OVC015 03/02 Q1011 NOSIG
LDOS - Osijek, Hrvatksa
Ažurirano: 23/02/2018 17:30
Mist, Oblačno
Mist, Oblačno
 Pravac vetra SSI
Vetar: SSI 19 km/h
Temperatura: 3°C
Osećaj hladnoće: -2°C
Tačka rose: 1°C
Vlažnost: 87%
Pritisak: 1015 hPa
Pregled: Mist
Oblaci: Oblačno
Vidljivost: 4 km
Cloud details: Mostly Cloudy 305 m
Oblačno 457 m
2018/02/23 16:30 LDOS 231630Z 03010KT 4000 BR BKN010 OVC015 03/01 Q1015